createdAt,value
2023-07-15T00:00:15.115Z,20.79
2023-07-15T00:02:43.732Z,20.88
2023-07-15T00:05:29.901Z,20.69
2023-07-15T00:07:56.792Z,20.62
2023-07-15T00:10:23.440Z,20.71
2023-07-15T00:12:49.978Z,20.70
2023-07-15T00:15:16.478Z,20.69
2023-07-15T00:17:44.118Z,20.71
2023-07-15T00:20:15.967Z,20.62
2023-07-15T00:22:44.309Z,20.53
2023-07-15T00:25:16.582Z,20.60
2023-07-15T00:27:44.056Z,20.50
2023-07-15T00:30:16.354Z,20.23
2023-07-15T00:32:46.727Z,20.16
2023-07-15T00:35:22.777Z,20.28
2023-07-15T00:37:49.389Z,20.32
2023-07-15T00:40:16.909Z,20.21
2023-07-15T00:42:49.603Z,20.36
2023-07-15T00:45:16.621Z,20.34
2023-07-15T00:48:04.173Z,20.32
2023-07-15T00:50:31.364Z,20.14
2023-07-15T00:52:57.859Z,20.12
2023-07-15T00:55:24.406Z,20.21
2023-07-15T00:57:50.984Z,20.13
2023-07-15T01:00:19.233Z,20.12
2023-07-15T01:02:45.787Z,20.22
2023-07-15T01:05:12.439Z,20.00
2023-07-15T01:07:38.882Z,20.02
2023-07-15T01:10:05.640Z,19.99
2023-07-15T01:12:32.109Z,19.67
2023-07-15T01:14:58.534Z,19.85
2023-07-15T01:17:26.048Z,19.85
2023-07-15T01:19:54.260Z,19.83
2023-07-15T01:22:21.566Z,19.77
2023-07-15T01:24:48.106Z,19.70
2023-07-15T01:27:15.749Z,19.71
2023-07-15T01:29:42.256Z,19.88
2023-07-15T01:32:08.938Z,19.96
2023-07-15T01:34:35.395Z,19.97
2023-07-15T01:37:01.880Z,19.87
2023-07-15T01:39:28.338Z,19.73
2023-07-15T01:41:56.615Z,19.65
2023-07-15T01:44:25.840Z,19.40
2023-07-15T01:46:52.547Z,19.37
2023-07-15T01:49:19.099Z,19.56
2023-07-15T01:51:45.571Z,19.61
2023-07-15T01:54:12.107Z,19.61
2023-07-15T01:56:40.794Z,19.64
2023-07-15T01:59:07.247Z,19.55
2023-07-15T02:01:33.808Z,19.56
2023-07-15T02:04:00.826Z,19.57
2023-07-15T02:06:27.387Z,19.47
2023-07-15T02:08:53.868Z,19.61
2023-07-15T02:11:20.337Z,19.39
2023-07-15T02:13:46.832Z,19.44
2023-07-15T02:16:13.643Z,19.35
2023-07-15T02:18:40.489Z,19.17
2023-07-15T02:21:06.985Z,19.31
2023-07-15T02:23:34.682Z,19.27
2023-07-15T02:26:02.113Z,19.14
2023-07-15T02:28:28.988Z,19.02
2023-07-15T02:30:56.535Z,18.97
2023-07-15T02:33:24.524Z,18.97
2023-07-15T02:35:51.375Z,18.85
2023-07-15T02:38:17.831Z,18.92
2023-07-15T02:40:44.385Z,18.85
2023-07-15T02:43:12.774Z,18.96
2023-07-15T02:45:39.334Z,18.84
2023-07-15T02:48:05.855Z,18.73
2023-07-15T02:50:32.329Z,18.92
2023-07-15T02:52:59.164Z,18.84
2023-07-15T02:55:28.918Z,18.70
2023-07-15T02:57:55.442Z,18.62
2023-07-15T03:00:23.517Z,18.62
2023-07-15T03:02:50.021Z,18.58
2023-07-15T03:05:17.581Z,18.60
2023-07-15T03:07:46.219Z,18.54
2023-07-15T03:10:13.550Z,18.58
2023-07-15T03:12:40.281Z,18.47
2023-07-15T03:15:07.262Z,18.24
2023-07-15T03:17:36.957Z,18.20
2023-07-15T03:20:23.383Z,18.19
2023-07-15T03:22:51.295Z,18.36
2023-07-15T03:25:20.548Z,18.30
2023-07-15T03:27:47.631Z,18.20
2023-07-15T03:30:14.317Z,18.27
2023-07-15T03:32:41.990Z,18.35
2023-07-15T03:35:13.163Z,18.28
2023-07-15T03:37:42.761Z,18.35
2023-07-15T03:40:11.300Z,18.44
2023-07-15T03:42:41.324Z,18.41
2023-07-15T03:45:08.586Z,18.48
2023-07-15T03:47:35.610Z,18.51
2023-07-15T03:50:06.232Z,18.60
2023-07-15T03:52:33.095Z,18.62
2023-07-15T03:55:00.082Z,18.52
2023-07-15T03:57:26.978Z,18.61
2023-07-15T03:59:53.448Z,18.70
2023-07-15T04:02:19.983Z,18.79
2023-07-15T04:04:47.658Z,18.87
2023-07-15T04:07:14.184Z,18.84
2023-07-15T04:09:41.669Z,18.85
2023-07-15T04:12:09.451Z,18.92
2023-07-15T04:14:35.946Z,18.91
2023-07-15T04:17:02.377Z,18.81
2023-07-15T04:19:28.854Z,18.83
2023-07-15T04:21:55.294Z,19.03
2023-07-15T04:24:21.746Z,18.90
2023-07-15T04:26:48.235Z,19.01
2023-07-15T04:29:15.159Z,19.27
2023-07-15T04:31:43.666Z,19.45
2023-07-15T04:34:10.268Z,19.97
2023-07-15T04:36:36.797Z,20.67
2023-07-15T04:39:03.341Z,20.23
2023-07-15T04:41:29.796Z,20.00
2023-07-15T04:43:56.217Z,19.89
2023-07-15T04:46:22.707Z,19.86
2023-07-15T04:48:49.224Z,19.93
2023-07-15T04:51:16.729Z,19.95
2023-07-15T04:53:44.796Z,19.98
2023-07-15T04:56:12.150Z,19.88
2023-07-15T04:58:39.810Z,20.24
2023-07-15T05:01:06.321Z,20.36
2023-07-15T05:03:34.467Z,20.38
2023-07-15T05:06:01.881Z,20.34
2023-07-15T05:08:29.058Z,20.40
2023-07-15T05:10:56.228Z,20.42
2023-07-15T05:13:22.784Z,20.47
2023-07-15T05:15:49.245Z,20.53
2023-07-15T05:18:17.139Z,20.72
2023-07-15T05:20:43.768Z,20.72
2023-07-15T05:23:10.306Z,20.79
2023-07-15T05:25:36.821Z,20.81
2023-07-15T05:28:03.324Z,20.90
2023-07-15T05:30:29.798Z,20.96
2023-07-15T05:32:56.585Z,21.00
2023-07-15T05:35:23.109Z,20.89
2023-07-15T05:37:49.682Z,20.89
2023-07-15T05:40:16.265Z,21.02
2023-07-15T05:42:43.755Z,21.18
2023-07-15T05:45:11.665Z,21.33
2023-07-15T05:47:41.418Z,21.36
2023-07-15T05:50:09.463Z,21.42
2023-07-15T05:52:36.276Z,21.53
2023-07-15T05:55:03.447Z,21.73
2023-07-15T05:57:30.342Z,22.26
2023-07-15T05:59:59.769Z,22.26
2023-07-15T06:02:26.913Z,22.21
2023-07-15T06:04:53.455Z,22.17
2023-07-15T06:07:19.913Z,22.11
2023-07-15T06:09:46.372Z,22.12
2023-07-15T06:12:12.795Z,22.14
2023-07-15T06:14:39.262Z,22.17
2023-07-15T06:17:05.986Z,22.21
2023-07-15T06:19:32.453Z,22.26
2023-07-15T06:21:58.876Z,22.32
2023-07-15T06:24:25.559Z,22.43
2023-07-15T06:26:52.015Z,22.53
2023-07-15T06:29:18.529Z,22.59
2023-07-15T06:31:45.945Z,22.71
2023-07-15T06:34:12.564Z,22.94
2023-07-15T06:36:39.081Z,23.10
2023-07-15T06:39:05.678Z,23.19
2023-07-15T06:41:32.190Z,24.00
2023-07-15T06:43:58.690Z,24.52
2023-07-15T06:46:28.129Z,23.94
2023-07-15T06:48:56.567Z,23.82
2023-07-15T06:51:26.148Z,23.67
2023-07-15T06:53:52.703Z,23.57
2023-07-15T06:56:21.041Z,23.39
2023-07-15T06:58:48.141Z,23.41
2023-07-15T07:01:15.299Z,23.50
2023-07-15T07:03:42.190Z,23.56
2023-07-15T07:06:08.853Z,23.62
2023-07-15T07:08:35.367Z,23.69
2023-07-15T07:11:01.795Z,23.73
2023-07-15T07:13:28.302Z,23.82
2023-07-15T07:15:58.769Z,23.90
2023-07-15T07:18:26.156Z,23.98
2023-07-15T07:20:59.960Z,24.45
2023-07-15T07:23:26.928Z,24.80
2023-07-15T07:25:54.090Z,24.67
2023-07-15T07:28:24.414Z,24.80
2023-07-15T07:30:51.537Z,25.08
2023-07-15T07:33:19.817Z,25.31
2023-07-15T07:35:47.957Z,25.50
2023-07-15T07:38:14.820Z,25.64
2023-07-15T07:40:41.296Z,25.46
2023-07-15T07:43:10.245Z,25.38
2023-07-15T07:45:38.352Z,25.22
2023-07-15T07:48:05.286Z,25.25
2023-07-15T07:50:32.373Z,25.31
2023-07-15T07:52:58.832Z,25.35
2023-07-15T07:55:25.351Z,25.36
2023-07-15T07:57:51.834Z,25.40
2023-07-15T08:00:18.354Z,25.48
2023-07-15T08:02:44.851Z,25.53
2023-07-15T08:05:11.356Z,25.51
2023-07-15T08:07:38.072Z,25.42
2023-07-15T08:10:04.946Z,25.46
2023-07-15T08:12:31.460Z,25.44
2023-07-15T08:14:57.878Z,25.35
2023-07-15T08:17:24.332Z,25.29
2023-07-15T08:19:50.843Z,25.18
2023-07-15T08:22:17.275Z,25.22
2023-07-15T08:24:44.817Z,25.16
2023-07-15T08:27:11.288Z,25.08
2023-07-15T08:29:37.753Z,25.06
2023-07-15T08:32:04.485Z,24.98
2023-07-15T08:34:33.591Z,24.88
2023-07-15T08:37:00.366Z,24.98
2023-07-15T08:39:26.787Z,24.88
2023-07-15T08:41:54.342Z,24.86
2023-07-15T08:44:21.005Z,24.86
2023-07-15T08:46:48.574Z,24.77
2023-07-15T08:49:19.700Z,24.79
2023-07-15T08:51:46.588Z,24.69
2023-07-15T08:54:13.431Z,24.61
2023-07-15T08:56:40.053Z,24.57
2023-07-15T08:59:07.447Z,24.51
2023-07-15T09:01:38.087Z,24.30
2023-07-15T09:04:05.303Z,24.28
2023-07-15T09:06:32.005Z,24.19
2023-07-15T09:08:58.488Z,24.19
2023-07-15T09:11:25.007Z,24.01
2023-07-15T09:13:51.523Z,23.92
2023-07-15T09:16:18.044Z,23.81
2023-07-15T09:18:44.580Z,23.87
2023-07-15T09:21:14.230Z,23.91
2023-07-15T09:23:43.174Z,23.92
2023-07-15T09:26:10.593Z,23.92
2023-07-15T09:28:38.068Z,23.96
2023-07-15T09:31:05.206Z,23.84
2023-07-15T09:33:36.389Z,23.75
2023-07-15T09:36:03.226Z,23.64
2023-07-15T09:38:35.234Z,23.58
2023-07-15T09:41:02.106Z,23.59
2023-07-15T09:43:50.930Z,23.53
2023-07-15T09:46:20.634Z,23.52
2023-07-15T09:48:48.374Z,23.23
2023-07-15T09:51:17.192Z,23.25
2023-07-15T09:53:49.319Z,23.52
2023-07-15T09:56:18.408Z,23.48
2023-07-15T09:58:48.126Z,23.47
2023-07-15T10:01:27.263Z,23.76
2023-07-15T10:03:58.354Z,23.96
2023-07-15T10:06:24.975Z,24.08
2023-07-15T10:08:51.706Z,24.22
2023-07-15T10:11:18.421Z,24.01
2023-07-15T10:13:44.967Z,23.84
2023-07-15T10:16:11.945Z,24.11
2023-07-15T10:18:38.520Z,24.24
2023-07-15T10:21:06.263Z,24.46
2023-07-15T10:23:34.031Z,24.50
2023-07-15T10:26:05.736Z,24.27
2023-07-15T10:28:42.928Z,24.31
2023-07-15T10:31:16.943Z,24.43
2023-07-15T10:33:56.700Z,24.49
2023-07-15T10:36:45.982Z,24.87
2023-07-15T10:39:17.726Z,25.11
2023-07-15T10:41:49.679Z,25.44
2023-07-15T10:44:20.347Z,25.83
2023-07-15T10:47:05.303Z,25.95
2023-07-15T10:49:32.346Z,26.27
2023-07-15T10:51:59.243Z,26.18
2023-07-15T10:54:30.709Z,25.81
2023-07-15T10:56:57.814Z,26.44
2023-07-15T10:59:26.039Z,26.12
2023-07-15T11:01:52.558Z,25.93
2023-07-15T11:04:20.055Z,25.96
2023-07-15T11:06:46.845Z,26.08
2023-07-15T11:09:17.927Z,26.13
2023-07-15T11:11:44.813Z,25.97
2023-07-15T11:14:30.302Z,26.06
2023-07-15T11:17:01.531Z,26.07
2023-07-15T11:19:29.761Z,26.37
2023-07-15T11:21:57.805Z,26.59
2023-07-15T11:24:26.711Z,26.69
2023-07-15T11:26:53.490Z,26.77
2023-07-15T11:29:21.937Z,26.81
2023-07-15T11:31:52.555Z,26.63
2023-07-15T11:34:20.689Z,26.70
2023-07-15T11:36:47.489Z,26.54
2023-07-15T11:39:15.045Z,26.67
2023-07-15T11:41:41.801Z,26.66
2023-07-15T11:44:12.402Z,26.78
2023-07-15T11:46:40.082Z,26.67
2023-07-15T11:49:07.140Z,26.56
2023-07-15T11:51:35.828Z,26.55
2023-07-15T11:54:02.397Z,26.58
2023-07-15T11:56:33.820Z,26.72
2023-07-15T11:59:00.259Z,26.97
2023-07-15T12:01:27.420Z,27.13
2023-07-15T12:03:54.614Z,27.21
2023-07-15T12:06:23.404Z,26.97
2023-07-15T12:09:04.168Z,27.13
2023-07-15T12:11:31.671Z,27.36
2023-07-15T12:13:58.828Z,27.02
2023-07-15T12:16:25.766Z,27.00
2023-07-15T12:18:53.977Z,26.78
2023-07-15T12:21:21.001Z,26.52
2023-07-15T12:23:47.498Z,26.27
2023-07-15T12:26:14.493Z,26.17
2023-07-15T12:28:41.207Z,26.16
2023-07-15T12:31:07.731Z,26.05
2023-07-15T12:33:34.195Z,25.94
2023-07-15T12:36:00.716Z,25.73
2023-07-15T12:38:27.200Z,25.62
2023-07-15T12:40:54.100Z,25.39
2023-07-15T12:43:21.661Z,25.33
2023-07-15T12:45:48.617Z,25.15
2023-07-15T12:48:15.100Z,25.13
2023-07-15T12:50:41.563Z,25.37
2023-07-15T12:53:08.443Z,25.40
2023-07-15T12:55:35.245Z,25.82
2023-07-15T12:58:01.752Z,26.27
2023-07-15T13:00:28.294Z,26.44
2023-07-15T13:02:54.972Z,26.35
2023-07-15T13:05:21.532Z,26.29
2023-07-15T13:07:48.046Z,26.23
2023-07-15T13:10:15.053Z,26.04
2023-07-15T13:12:41.592Z,26.07
2023-07-15T13:15:08.815Z,26.12
2023-07-15T13:17:35.375Z,26.08
2023-07-15T13:20:02.128Z,26.05
2023-07-15T13:22:28.623Z,26.04
2023-07-15T13:24:55.106Z,26.06
2023-07-15T13:27:21.567Z,25.85
2023-07-15T13:29:50.839Z,25.68
2023-07-15T13:32:17.300Z,25.55
2023-07-15T13:34:43.781Z,25.58
2023-07-15T13:37:10.247Z,25.06
2023-07-15T13:39:37.518Z,24.13
2023-07-15T13:42:08.189Z,23.98
2023-07-15T13:44:35.604Z,23.55
2023-07-15T13:47:02.829Z,23.70
2023-07-15T13:49:29.457Z,23.60
2023-07-15T13:51:56.343Z,23.46
2023-07-15T13:54:23.281Z,23.40
2023-07-15T13:56:50.411Z,23.34
2023-07-15T13:59:17.945Z,23.39
2023-07-15T14:01:45.162Z,23.21
2023-07-15T14:04:11.797Z,23.11
2023-07-15T14:06:41.153Z,23.14
2023-07-15T14:09:11.089Z,23.07
2023-07-15T14:11:39.355Z,23.21
2023-07-15T14:14:06.145Z,23.26
2023-07-15T14:16:32.715Z,23.36
2023-07-15T14:18:59.821Z,23.30
2023-07-15T14:21:26.331Z,23.17
2023-07-15T14:23:52.903Z,23.00
2023-07-15T14:26:22.187Z,23.05
2023-07-15T14:28:48.683Z,23.24
2023-07-15T14:31:15.637Z,23.32
2023-07-15T14:33:42.354Z,23.31
2023-07-15T14:36:09.140Z,23.35
2023-07-15T14:38:35.601Z,23.40
2023-07-15T14:41:02.099Z,23.64
2023-07-15T14:43:28.745Z,23.67
2023-07-15T14:45:55.208Z,23.41
2023-07-15T14:48:21.673Z,23.29
2023-07-15T14:50:48.228Z,23.28
2023-07-15T14:53:14.701Z,23.26
2023-07-15T14:55:41.158Z,23.30
2023-07-15T14:58:07.701Z,23.02
2023-07-15T15:00:34.376Z,23.12
2023-07-15T15:03:01.123Z,23.07
2023-07-15T15:05:27.976Z,23.23
2023-07-15T15:07:54.711Z,23.20
2023-07-15T15:10:21.228Z,23.34
2023-07-15T15:12:47.721Z,23.49
2023-07-15T15:15:14.147Z,23.68
2023-07-15T15:17:40.794Z,23.83
2023-07-15T15:20:07.849Z,23.93
2023-07-15T15:22:34.371Z,23.67
2023-07-15T15:25:04.194Z,23.76
2023-07-15T15:27:30.979Z,23.76
2023-07-15T15:29:57.449Z,23.83
2023-07-15T15:32:23.993Z,23.79
2023-07-15T15:34:50.609Z,23.74
2023-07-15T15:37:17.083Z,23.65
2023-07-15T15:39:43.596Z,23.74
2023-07-15T15:42:10.270Z,23.86
2023-07-15T15:44:36.783Z,23.75
2023-07-15T15:47:03.393Z,23.70
2023-07-15T15:49:29.986Z,23.63
2023-07-15T15:51:56.481Z,23.61
2023-07-15T15:54:22.940Z,23.44
2023-07-15T15:56:49.599Z,23.28
2023-07-15T15:59:16.064Z,23.24
2023-07-15T16:01:42.553Z,22.95
2023-07-15T16:04:09.239Z,23.15
2023-07-15T16:06:35.833Z,23.24
2023-07-15T16:09:02.296Z,23.14
2023-07-15T16:11:28.797Z,23.16
2023-07-15T16:13:55.271Z,23.08
2023-07-15T16:16:21.749Z,23.13
2023-07-15T16:18:48.283Z,23.07
2023-07-15T16:21:15.028Z,23.17
2023-07-15T16:23:41.777Z,23.29
2023-07-15T16:26:08.325Z,23.48
2023-07-15T16:28:37.112Z,23.50
2023-07-15T16:31:03.648Z,23.47
2023-07-15T16:33:30.163Z,23.29
2023-07-15T16:35:57.432Z,23.53
2023-07-15T16:38:23.861Z,23.52
2023-07-15T16:40:50.446Z,23.51
2023-07-15T16:43:16.927Z,23.84
2023-07-15T16:45:43.389Z,23.89
2023-07-15T16:48:09.892Z,23.97
2023-07-15T16:50:36.365Z,24.06
2023-07-15T16:53:02.834Z,23.95
2023-07-15T16:55:29.339Z,23.80
2023-07-15T16:57:55.760Z,23.85
2023-07-15T17:00:22.216Z,23.85
2023-07-15T17:02:48.757Z,23.73
2023-07-15T17:05:15.300Z,23.84
2023-07-15T17:07:41.745Z,24.05
2023-07-15T17:10:08.586Z,24.13
2023-07-15T17:12:35.128Z,24.05
2023-07-15T17:15:01.966Z,24.07
2023-07-15T17:17:28.486Z,23.94
2023-07-15T17:19:54.987Z,24.11
2023-07-15T17:22:21.505Z,24.08
2023-07-15T17:24:54.130Z,24.13
2023-07-15T17:27:20.689Z,24.24
2023-07-15T17:29:47.146Z,24.23
2023-07-15T17:32:13.603Z,24.12
2023-07-15T17:34:40.058Z,23.91
2023-07-15T17:37:06.929Z,23.78
2023-07-15T17:39:33.415Z,23.76
2023-07-15T17:42:02.671Z,23.86
2023-07-15T17:44:29.782Z,23.77
2023-07-15T17:46:56.387Z,23.73
2023-07-15T17:49:22.887Z,23.76
2023-07-15T17:51:49.367Z,23.91
2023-07-15T17:54:15.828Z,23.96
2023-07-15T17:56:42.301Z,23.98
2023-07-15T17:59:08.760Z,24.06
2023-07-15T18:01:35.289Z,24.16
2023-07-15T18:04:01.851Z,24.24
2023-07-15T18:06:28.367Z,24.36
2023-07-15T18:08:55.991Z,24.33
2023-07-15T18:11:22.423Z,24.30
2023-07-15T18:13:48.850Z,24.08
2023-07-15T18:16:15.374Z,24.25
2023-07-15T18:18:41.838Z,24.13
2023-07-15T18:21:08.344Z,24.03
2023-07-15T18:23:39.520Z,24.10
2023-07-15T18:26:06.344Z,24.02
2023-07-15T18:28:32.830Z,24.03
2023-07-15T18:30:59.354Z,24.01
2023-07-15T18:33:25.797Z,24.05
2023-07-15T18:35:52.262Z,23.99
2023-07-15T18:38:18.770Z,23.93
2023-07-15T18:40:45.293Z,23.98
2023-07-15T18:43:11.799Z,23.88
2023-07-15T18:45:38.294Z,23.78
2023-07-15T18:48:05.420Z,23.58
2023-07-15T18:50:31.869Z,23.46
2023-07-15T18:52:58.381Z,23.44
2023-07-15T18:55:24.860Z,23.48
2023-07-15T18:57:51.377Z,23.35
2023-07-15T19:00:17.914Z,23.38
2023-07-15T19:02:44.463Z,23.39
2023-07-15T19:05:11.089Z,23.37
2023-07-15T19:07:37.598Z,23.33
2023-07-15T19:10:04.325Z,23.30
2023-07-15T19:12:30.820Z,23.33
2023-07-15T19:14:57.562Z,23.24
2023-07-15T19:17:24.039Z,23.21
2023-07-15T19:19:50.560Z,23.31
2023-07-15T19:22:17.039Z,23.32
2023-07-15T19:24:43.554Z,23.30
2023-07-15T19:27:10.175Z,23.25
2023-07-15T19:29:37.275Z,23.21
2023-07-15T19:32:04.372Z,23.27
2023-07-15T19:34:32.429Z,23.23
2023-07-15T19:36:58.965Z,22.97
2023-07-15T19:39:25.621Z,22.95
2023-07-15T19:41:52.123Z,22.67
2023-07-15T19:44:20.473Z,22.54
2023-07-15T19:46:46.927Z,22.64
2023-07-15T19:49:14.261Z,22.47
2023-07-15T19:51:45.946Z,22.46
2023-07-15T19:54:13.067Z,22.29
2023-07-15T19:56:39.618Z,22.20
2023-07-15T19:59:07.241Z,22.17
2023-07-15T20:01:34.419Z,22.23
2023-07-15T20:04:01.175Z,21.92
2023-07-15T20:06:27.818Z,21.88
2023-07-15T20:08:54.274Z,21.82
2023-07-15T20:11:20.699Z,21.64
2023-07-15T20:13:48.296Z,21.52
2023-07-15T20:16:15.014Z,21.55
2023-07-15T20:18:41.728Z,21.44
2023-07-15T20:21:08.222Z,21.39
2023-07-15T20:23:34.758Z,21.56
2023-07-15T20:26:03.137Z,21.64
2023-07-15T20:28:29.587Z,21.37
2023-07-15T20:31:02.810Z,21.38
2023-07-15T20:33:29.920Z,21.56
2023-07-15T20:35:56.400Z,21.59
2023-07-15T20:38:22.923Z,21.49
2023-07-15T20:40:57.112Z,21.52
2023-07-15T20:43:25.033Z,21.43
2023-07-15T20:45:51.708Z,21.56
2023-07-15T20:48:18.363Z,21.50
2023-07-15T20:50:44.845Z,21.46
2023-07-15T20:53:11.659Z,21.48
2023-07-15T20:55:42.018Z,21.34
2023-07-15T20:58:08.584Z,21.30
2023-07-15T21:00:35.138Z,21.22
2023-07-15T21:03:01.736Z,21.23
2023-07-15T21:05:28.367Z,21.19
2023-07-15T21:07:54.824Z,21.24
2023-07-15T21:10:21.413Z,21.12
2023-07-15T21:12:47.899Z,21.01
2023-07-15T21:15:14.393Z,20.92
2023-07-15T21:17:40.869Z,20.86
2023-07-15T21:20:08.051Z,20.88
2023-07-15T21:22:35.055Z,20.91
2023-07-15T21:25:01.530Z,20.97
2023-07-15T21:27:27.971Z,20.94
2023-07-15T21:29:54.529Z,20.88
2023-07-15T21:32:21.035Z,20.87
2023-07-15T21:34:50.760Z,20.95
2023-07-15T21:37:17.281Z,21.02
2023-07-15T21:39:43.894Z,21.05
2023-07-15T21:42:10.399Z,20.85
2023-07-15T21:44:36.941Z,20.90
2023-07-15T21:47:03.557Z,20.79
2023-07-15T21:49:30.034Z,20.55
2023-07-15T21:51:56.537Z,20.59
2023-07-15T21:54:23.644Z,20.42
2023-07-15T21:56:50.220Z,20.45
2023-07-15T21:59:16.758Z,20.39
2023-07-15T22:01:43.445Z,20.29
2023-07-15T22:04:10.054Z,20.27
2023-07-15T22:06:36.559Z,20.29
2023-07-15T22:09:03.066Z,20.26
2023-07-15T22:11:29.540Z,20.26
2023-07-15T22:13:56.085Z,20.18
2023-07-15T22:16:22.578Z,20.23
2023-07-15T22:18:49.081Z,20.10
2023-07-15T22:21:15.548Z,19.91
2023-07-15T22:23:41.995Z,19.91
2023-07-15T22:26:09.464Z,19.79
2023-07-15T22:28:36.006Z,19.72
2023-07-15T22:31:02.529Z,19.70
2023-07-15T22:33:29.002Z,19.79
2023-07-15T22:35:55.515Z,19.67
2023-07-15T22:38:22.047Z,19.71
2023-07-15T22:40:48.481Z,19.47
2023-07-15T22:43:14.986Z,19.56
2023-07-15T22:45:52.606Z,19.46
2023-07-15T22:48:23.597Z,19.56
2023-07-15T22:50:50.371Z,19.60
2023-07-15T22:53:16.810Z,19.41
2023-07-15T22:55:43.889Z,19.44
2023-07-15T22:58:10.336Z,19.35
2023-07-15T23:00:36.936Z,19.33
2023-07-15T23:03:04.085Z,19.47
2023-07-15T23:05:30.801Z,19.42
2023-07-15T23:07:57.486Z,19.42
2023-07-15T23:10:24.112Z,19.25
2023-07-15T23:12:50.641Z,19.15
2023-07-15T23:15:17.238Z,19.20
2023-07-15T23:17:43.744Z,19.23
2023-07-15T23:20:10.532Z,19.21
2023-07-15T23:22:37.382Z,19.18
2023-07-15T23:25:04.390Z,19.12
2023-07-15T23:27:30.896Z,19.09
2023-07-15T23:29:57.464Z,18.99
2023-07-15T23:32:26.661Z,18.96
2023-07-15T23:34:54.335Z,18.88
2023-07-15T23:37:23.318Z,18.83
2023-07-15T23:39:53.419Z,18.88
2023-07-15T23:42:19.862Z,18.79
2023-07-15T23:44:46.534Z,18.83
2023-07-15T23:47:13.012Z,18.78
2023-07-15T23:49:39.539Z,18.95
2023-07-15T23:52:06.527Z,18.85
2023-07-15T23:54:34.000Z,18.89
2023-07-15T23:57:00.876Z,18.94
2023-07-15T23:59:27.732Z,18.88
